Time;durP1;ratioP1;P1;durP2;ratioP2;P2;SDS_P1;SDS_P2;PMS_P1;PMS_P2;Temp;Humidity;BMP_temperature;BMP_pressure;BME280_temperature;BME280_humidity;BME280_pressure;Samples;Min_cycle;Max_cycle;Signal;HPM_P1;HPM_P2
2022/06/19 00:00:10;;;;;;;7.32;4.53;;;17.90;99.90;;;;;;5070950;28;20025;-70
2022/06/19 00:02:40;;;;;;;13.30;5.65;;;18.00;99.90;;;;;;5072571;28;20031;-71
2022/06/19 00:05:08;;;;;;;12.70;4.95;;;18.10;99.90;;;;;;5073308;28;20040;-73
2022/06/19 00:07:34;;;;;;;10.95;5.25;;;18.00;99.90;;;;;;5072142;28;20033;-72
2022/06/19 00:10:00;;;;;;;16.05;6.20;;;17.70;99.90;;;;;;5072066;28;20119;-67
2022/06/19 00:12:27;;;;;;;8.88;5.60;;;17.60;99.90;;;;;;5072270;28;20068;-72
2022/06/19 00:14:52;;;;;;;10.90;6.20;;;17.60;99.90;;;;;;5072112;28;20029;-72
2022/06/19 00:17:18;;;;;;;14.18;6.22;;;17.60;99.90;;;;;;5073421;28;20017;-71
2022/06/19 00:19:44;;;;;;;11.85;6.53;;;17.60;99.90;;;;;;5068468;28;20377;-71
2022/06/19 00:22:11;;;;;;;13.13;6.32;;;17.60;99.90;;;;;;5071841;28;20447;-72
2022/06/19 00:24:37;;;;;;;16.30;7.97;;;17.70;99.90;;;;;;5071448;28;20107;-73
2022/06/19 00:27:03;;;;;;;13.45;7.55;;;17.50;99.90;;;;;;5066735;28;20100;-73
2022/06/19 00:29:29;;;;;;;14.68;8.70;;;17.50;99.90;;;;;;5065821;28;20070;-73
2022/06/19 00:31:55;;;;;;;13.95;8.35;;;17.40;99.90;;;;;;5072415;28;20386;-65
2022/06/19 00:34:22;;;;;;;16.77;9.40;;;17.30;99.90;;;;;;5071000;28;20048;-70
2022/06/19 00:36:50;;;;;;;18.17;10.30;;;17.30;99.90;;;;;;5070582;28;20458;-73
2022/06/19 00:39:17;;;;;;;17.67;9.82;;;17.20;99.90;;;;;;5072545;28;20067;-73
2022/06/19 00:41:44;;;;;;;16.92;9.27;;;17.20;99.90;;;;;;5071624;28;20485;-69
2022/06/19 00:44:13;;;;;;;16.30;8.30;;;17.20;99.90;;;;;;5071519;28;20111;-70
2022/06/19 00:46:58;;;;;;;14.88;8.13;;;17.20;99.90;;;;;;5071581;28;20025;-73
2022/06/19 00:49:33;;;;;;;15.02;8.30;;;17.20;99.90;;;;;;5069398;28;20425;-69
2022/06/19 00:52:06;;;;;;;15.73;7.60;;;17.20;99.90;;;;;;5071516;28;20119;-75
2022/06/19 00:54:39;;;;;;;10.05;6.03;;;17.20;99.90;;;;;;5069867;28;20040;-67
2022/06/19 00:57:05;;;;;;;12.65;6.50;;;17.20;99.90;;;;;;5070552;28;20086;-74
2022/06/19 00:59:32;;;;;;;11.15;6.43;;;17.10;99.90;;;;;;5064946;28;20413;-69
2022/06/19 01:01:59;;;;;;;13.35;6.30;;;17.20;99.90;;;;;;5070454;28;20128;-71
2022/06/19 01:04:46;;;;;;;15.48;5.93;;;17.10;99.90;;;;;;5061252;28;20377;-73
2022/06/19 01:07:16;;;;;;;9.27;5.53;;;17.10;99.90;;;;;;5070788;28;20059;-72
2022/06/19 01:09:42;;;;;;;13.10;5.90;;;17.10;99.90;;;;;;5069632;28;20218;-73
2022/06/19 01:12:08;;;;;;;12.27;6.85;;;17.10;99.90;;;;;;5068590;28;20533;-72
2022/06/19 01:14:36;;;;;;;13.82;7.10;;;17.10;99.90;;;;;;5070784;28;20430;-73
2022/06/19 01:17:03;;;;;;;17.20;7.18;;;17.10;99.90;;;;;;5070238;28;20020;-71
2022/06/19 01:19:33;;;;;;;12.57;7.07;;;17.10;99.90;;;;;;5068494;28;20029;-73
2022/06/19 01:22:15;;;;;;;11.43;6.45;;;17.00;99.90;;;;;;5070339;28;20654;-71
2022/06/19 01:25:01;;;;;;;13.45;7.75;;;17.00;99.90;;;;;;5064080;28;20031;-71
2022/06/19 01:30:16;;;;;;;14.38;7.57;;;16.90;99.90;;;;;;5069042;28;20470;-72
2022/06/19 01:32:44;;;;;;;12.32;6.57;;;16.90;99.90;;;;;;5075064;28;20059;-73
2022/06/19 01:35:11;;;;;;;15.43;7.45;;;16.80;99.90;;;;;;5073693;28;20049;-71
2022/06/19 01:37:39;;;;;;;9.52;5.93;;;16.80;99.90;;;;;;5069645;28;20029;-72
2022/06/19 01:40:20;;;;;;;12.02;5.78;;;16.80;99.90;;;;;;5067578;28;20028;-73
2022/06/19 01:42:46;;;;;;;13.35;6.10;;;16.70;99.90;;;;;;5067409;28;20047;-67
2022/06/19 01:45:12;;;;;;;15.40;6.65;;;16.60;99.90;;;;;;5070722;28;20485;-73
2022/06/19 01:47:40;;;;;;;11.40;6.03;;;16.60;99.90;;;;;;5070705;28;20113;-71
2022/06/19 01:50:12;;;;;;;12.80;5.95;;;16.60;99.90;;;;;;5071016;28;20040;-70
2022/06/19 01:52:38;;;;;;;12.27;6.47;;;16.60;99.90;;;;;;5073195;28;20032;-74
2022/06/19 01:55:10;;;;;;;9.80;5.93;;;16.50;99.90;;;;;;5070417;28;20036;-74
2022/06/19 01:57:40;;;;;;;12.07;6.05;;;16.60;99.90;;;;;;5071161;28;20414;-75
2022/06/19 02:00:09;;;;;;;10.60;5.90;;;16.50;99.90;;;;;;5071415;28;20032;-75
2022/06/19 02:02:41;;;;;;;13.00;6.93;;;16.50;99.90;;;;;;5071928;28;20478;-75
2022/06/19 02:05:09;;;;;;;11.43;6.32;;;16.40;99.90;;;;;;5071596;28;20481;-75
2022/06/19 02:07:35;;;;;;;9.60;5.72;;;16.40;99.90;;;;;;5071309;28;20347;-74
2022/06/19 02:10:05;;;;;;;8.77;5.68;;;16.30;99.90;;;;;;5053104;28;20044;-75
2022/06/19 02:12:32;;;;;;;10.23;5.60;;;16.40;99.90;;;;;;5071358;28;20028;-75
2022/06/19 02:15:01;;;;;;;9.13;6.30;;;16.40;99.90;;;;;;5071578;28;20436;-75
2022/06/19 02:17:35;;;;;;;10.50;5.53;;;16.40;99.90;;;;;;5070982;28;20092;-75
2022/06/19 02:20:01;;;;;;;10.63;5.25;;;16.30;99.90;;;;;;5071337;28;20036;-75
2022/06/19 02:22:27;;;;;;;9.50;5.95;;;16.30;99.90;;;;;;5071345;28;20035;-75
2022/06/19 02:24:53;;;;;;;11.88;5.85;;;16.30;99.90;;;;;;5071196;28;20470;-75
2022/06/19 02:27:19;;;;;;;18.08;5.50;;;16.20;99.90;;;;;;5071268;28;20020;-75
2022/06/19 02:29:45;;;;;;;9.40;4.70;;;16.20;99.90;;;;;;5074525;28;20035;-74
2022/06/19 02:32:21;;;;;;;14.05;5.45;;;16.20;99.90;;;;;;5068283;28;20102;-67
2022/06/19 02:34:50;;;;;;;9.93;5.40;;;16.20;99.90;;;;;;5073967;28;20041;-73
2022/06/19 02:37:21;;;;;;;17.42;6.10;;;16.30;99.90;;;;;;5081429;28;20035;-74
2022/06/19 02:40:19;;;;;;;10.80;6.18;;;16.20;99.90;;;;;;5069714;28;20020;-74
2022/06/19 02:42:47;;;;;;;11.02;6.13;;;16.20;99.90;;;;;;5079893;28;20446;-73
2022/06/19 02:45:17;;;;;;;13.95;6.40;;;16.20;99.90;;;;;;5073717;28;20028;-73
2022/06/19 02:47:45;;;;;;;10.32;6.18;;;16.20;99.90;;;;;;5070296;28;20017;-74
2022/06/19 02:50:14;;;;;;;12.88;5.90;;;16.20;99.90;;;;;;5070289;28;20110;-72
2022/06/19 02:52:40;;;;;;;10.43;5.78;;;16.30;99.90;;;;;;5043782;28;20040;-73
2022/06/19 02:55:07;;;;;;;13.38;5.68;;;16.20;99.90;;;;;;5033283;28;20483;-74
2022/06/19 02:57:33;;;;;;;10.18;5.57;;;16.30;99.90;;;;;;5031000;28;20022;-73
2022/06/19 02:59:59;;;;;;;13.93;5.85;;;16.30;99.90;;;;;;5030842;28;20515;-73
2022/06/19 03:02:28;;;;;;;10.35;5.88;;;16.30;99.90;;;;;;5042817;28;20037;-72
2022/06/19 03:04:58;;;;;;;12.38;6.03;;;16.20;99.90;;;;;;5038555;28;20040;-72
2022/06/19 03:07:26;;;;;;;12.25;5.97;;;16.20;99.90;;;;;;5049096;28;20025;-71
2022/06/19 03:09:53;;;;;;;10.88;6.35;;;16.30;99.90;;;;;;5046683;28;21380;-73
2022/06/19 03:12:19;;;;;;;10.70;5.55;;;16.40;99.90;;;;;;5054558;28;20021;-74
2022/06/19 03:14:45;;;;;;;10.13;5.53;;;16.40;99.90;;;;;;5036050;28;20068;-71
2022/06/19 03:17:16;;;;;;;10.27;5.57;;;16.50;99.90;;;;;;5034857;28;20065;-71
2022/06/19 03:19:42;;;;;;;11.63;6.15;;;16.50;99.90;;;;;;5035598;28;20383;-72
2022/06/19 03:22:09;;;;;;;13.10;5.97;;;16.60;99.90;;;;;;5039543;28;20032;-67
2022/06/19 03:24:35;;;;;;;10.02;5.97;;;16.50;99.90;;;;;;5040503;28;20029;-72
2022/06/19 03:27:01;;;;;;;11.40;5.25;;;16.60;99.90;;;;;;5034163;28;20530;-73
2022/06/19 03:29:27;;;;;;;11.07;5.47;;;16.70;99.90;;;;;;5039696;28;20120;-73
2022/06/19 03:31:53;;;;;;;10.32;5.35;;;16.70;99.90;;;;;;5034534;28;20104;-73
2022/06/19 03:34:19;;;;;;;13.48;6.22;;;16.70;99.90;;;;;;5034585;28;20037;-72
2022/06/19 03:36:44;;;;;;;11.60;6.35;;;16.80;99.90;;;;;;5052095;28;20025;-73
2022/06/19 03:39:10;;;;;;;11.63;5.22;;;16.90;99.90;;;;;;5046129;28;20036;-74
2022/06/19 03:41:38;;;;;;;9.50;6.38;;;17.10;99.90;;;;;;5057975;28;20381;-74
2022/06/19 03:44:05;;;;;;;9.75;6.30;;;18.10;99.90;;;;;;5036223;28;20026;-72
2022/06/19 03:46:30;;;;;;;15.18;6.40;;;19.40;99.90;;;;;;5038885;28;20021;-74
2022/06/19 03:48:56;;;;;;;11.90;6.13;;;20.60;99.90;;;;;;5060976;28;20029;-74
2022/06/19 03:51:23;;;;;;;15.50;6.22;;;21.50;99.90;;;;;;5049345;28;20502;-74
2022/06/19 03:53:53;;;;;;;8.15;5.47;;;22.00;96.70;;;;;;5053610;28;20033;-73
2022/06/19 03:56:26;;;;;;;10.73;6.18;;;22.40;94.90;;;;;;5053891;28;20082;-73
2022/06/19 03:58:53;;;;;;;11.48;5.57;;;23.00;91.70;;;;;;5053624;28;20024;-73
2022/06/19 04:01:27;;;;;;;13.15;5.38;;;23.60;89.50;;;;;;5050522;28;20384;-74
2022/06/19 04:03:55;;;;;;;10.88;5.32;;;24.50;85.30;;;;;;5053777;28;20033;-73
2022/06/19 04:06:24;;;;;;;7.95;5.10;;;25.10;81.10;;;;;;5053355;28;20056;-73
2022/06/19 04:08:50;;;;;;;9.45;4.80;;;25.80;77.40;;;;;;5053467;28;20028;-73
2022/06/19 04:11:18;;;;;;;9.52;5.40;;;25.50;74.60;;;;;;5072574;28;20078;-72
2022/06/19 04:13:44;;;;;;;10.27;5.35;;;26.00;75.10;;;;;;5073667;28;20078;-75
2022/06/19 04:16:15;;;;;;;7.53;5.40;;;26.80;73.50;;;;;;5072858;28;20028;-71
2022/06/19 04:18:42;;;;;;;9.23;5.18;;;26.50;71.80;;;;;;5055824;28;20024;-65
2022/06/19 04:21:15;;;;;;;10.07;5.90;;;27.00;71.10;;;;;;5072546;28;20028;-74
2022/06/19 04:23:44;;;;;;;7.20;5.35;;;26.70;70.00;;;;;;5073323;28;20028;-74
2022/06/19 04:26:13;;;;;;;8.77;5.22;;;27.70;69.60;;;;;;5073205;28;20024;-73
2022/06/19 04:28:40;;;;;;;7.95;5.07;;;28.40;68.40;;;;;;5073051;28;20017;-74
2022/06/19 04:31:06;;;;;;;9.00;5.35;;;28.60;67.50;;;;;;5072969;28;20031;-67
2022/06/19 04:33:35;;;;;;;9.60;5.68;;;28.60;65.90;;;;;;5081056;28;20034;-73
2022/06/19 04:36:01;;;;;;;12.27;5.40;;;29.50;65.60;;;;;;5075894;28;20109;-71
2022/06/19 04:38:28;;;;;;;8.65;5.55;;;29.60;65.10;;;;;;5072754;28;20063;-68
2022/06/19 04:40:55;;;;;;;12.52;5.97;;;;;;;;;;5073156;28;20063;-72
2022/06/19 04:43:21;;;;;;;10.65;5.63;;;28.90;64.30;;;;;;5073015;28;20073;-71
2022/06/19 04:45:49;;;;;;;9.65;5.50;;;28.90;65.20;;;;;;5072956;28;20020;-74
2022/06/19 04:48:15;;;;;;;8.82;5.28;;;29.30;65.80;;;;;;5072654;28;20028;-75
2022/06/19 04:50:41;;;;;;;9.95;4.85;;;29.30;65.00;;;;;;5072980;28;20109;-74
2022/06/19 04:53:07;;;;;;;8.13;4.90;;;29.30;64.80;;;;;;5072641;28;20429;-75
2022/06/19 04:55:33;;;;;;;10.07;5.38;;;28.60;64.20;;;;;;5072277;28;20036;-73
2022/06/19 04:58:03;;;;;;;8.70;5.00;;;27.70;65.80;;;;;;5073195;28;20024;-74
2022/06/19 05:00:30;;;;;;;10.73;5.10;;;26.70;67.40;;;;;;5058969;28;20028;-74
2022/06/19 05:02:56;;;;;;;9.52;5.90;;;25.90;68.20;;;;;;5072054;28;20356;-75
2022/06/19 05:05:23;;;;;;;16.15;5.72;;;25.60;70.70;;;;;;5072661;28;20037;-74
2022/06/19 05:07:49;;;;;;;11.25;5.20;;;25.20;72.00;;;;;;5072457;28;20029;-74
2022/06/19 05:10:16;;;;;;;9.10;5.43;;;25.10;72.30;;;;;;5072647;28;20478;-73
2022/06/19 05:12:45;;;;;;;11.32;5.80;;;24.90;73.30;;;;;;5068600;28;20023;-75
2022/06/19 05:15:11;;;;;;;8.02;5.25;;;24.50;74.70;;;;;;5071785;28;20120;-75
2022/06/19 05:17:37;;;;;;;15.35;5.40;;;24.30;76.00;;;;;;5071995;28;20466;-74
2022/06/19 05:20:04;;;;;;;13.60;5.60;;;24.20;76.90;;;;;;5072267;28;20033;-74
2022/06/19 05:22:31;;;;;;;10.50;5.43;;;24.20;78.50;;;;;;5071872;28;20024;-69
2022/06/19 05:24:57;;;;;;;11.18;5.28;;;24.10;80.10;;;;;;5071446;28;20028;-73
2022/06/19 05:27:23;;;;;;;11.93;5.43;;;24.10;81.20;;;;;;5072214;28;20425;-73
2022/06/19 05:29:49;;;;;;;13.02;5.85;;;24.20;81.70;;;;;;5071729;28;20029;-74
2022/06/19 05:32:15;;;;;;;12.32;5.30;;;24.30;82.30;;;;;;5071684;28;20077;-73
2022/06/19 05:34:43;;;;;;;7.53;5.05;;;24.30;82.90;;;;;;5071545;28;20041;-72
2022/06/19 05:37:09;;;;;;;11.88;4.93;;;24.10;83.10;;;;;;5072112;28;20458;-73
2022/06/19 05:39:34;;;;;;;9.35;5.03;;;24.20;84.00;;;;;;5071938;28;20116;-73
2022/06/19 05:42:03;;;;;;;11.63;5.32;;;24.30;83.00;;;;;;5071013;28;20462;-71
2022/06/19 05:44:30;;;;;;;7.68;5.07;;;24.50;88.70;;;;;;5071643;28;20024;-74
2022/06/19 05:46:55;;;;;;;16.70;5.95;;;24.80;85.70;;;;;;5053942;28;20489;-73
2022/06/19 05:49:21;;;;;;;8.98;4.85;;;24.90;83.20;;;;;;5071708;28;20024;-73
2022/06/19 05:51:47;;;;;;;10.90;5.07;;;24.80;82.90;;;;;;5071713;28;20047;-72
2022/06/19 05:54:13;;;;;;;9.30;5.53;;;24.90;85.50;;;;;;5071669;28;20032;-73
2022/06/19 05:56:39;;;;;;;15.10;5.35;;;25.10;83.70;;;;;;5071068;28;20418;-74
2022/06/19 05:59:05;;;;;;;8.40;5.03;;;25.30;82.60;;;;;;5071698;28;20486;-73
2022/06/19 06:01:31;;;;;;;8.38;4.63;;;25.30;83.00;;;;;;5071230;28;20027;-73
2022/06/19 06:03:59;;;;;;;9.63;5.22;;;25.20;83.30;;;;;;5071283;28;20479;-73
2022/06/19 06:06:30;;;;;;;8.27;5.28;;;25.30;78.60;;;;;;5071670;28;20024;-73
2022/06/19 06:08:56;;;;;;;12.93;5.85;;;25.60;80.00;;;;;;5071610;28;20386;-73
2022/06/19 06:11:23;;;;;;;9.85;5.18;;;25.40;79.90;;;;;;5071359;28;20048;-74
2022/06/19 06:13:49;;;;;;;8.73;5.68;;;25.70;78.10;;;;;;5070910;28;20020;-64
2022/06/19 06:16:18;;;;;;;10.73;5.25;;;25.70;78.60;;;;;;5079690;28;20036;-69
2022/06/19 06:18:44;;;;;;;10.30;5.28;;;25.60;77.50;;;;;;5082337;28;20537;-74
2022/06/19 06:21:12;;;;;;;10.15;5.30;;;25.60;76.30;;;;;;5080275;28;20028;-66
2022/06/19 06:23:39;;;;;;;10.15;5.47;;;25.50;77.60;;;;;;5073181;28;20035;-69
2022/06/19 06:26:08;;;;;;;9.27;5.10;;;25.70;76.80;;;;;;5068390;28;20062;-71
2022/06/19 06:28:36;;;;;;;13.07;5.05;;;25.70;76.70;;;;;;5070022;28;20078;-71
2022/06/19 06:31:02;;;;;;;8.13;4.70;;;25.90;75.60;;;;;;5066526;28;20424;-72
2022/06/19 06:33:29;;;;;;;9.45;4.90;;;25.70;74.60;;;;;;5070402;28;20073;-64
2022/06/19 06:35:55;;;;;;;9.15;5.38;;;25.90;76.40;;;;;;5068003;28;20051;-68
2022/06/19 06:38:22;;;;;;;6.45;4.53;;;26.00;76.50;;;;;;5069771;28;20040;-71
2022/06/19 06:40:52;;;;;;;10.60;5.68;;;26.20;75.70;;;;;;5068442;28;20039;-67
2022/06/19 06:43:19;;;;;;;9.63;5.40;;;26.60;77.70;;;;;;5070366;28;20690;-66
2022/06/19 06:45:45;;;;;;;14.32;4.93;;;26.70;74.70;;;;;;5071070;28;20037;-72
2022/06/19 06:48:11;;;;;;;8.73;4.00;;;26.70;74.10;;;;;;5074948;28;20068;-69
2022/06/19 06:50:39;;;;;;;8.00;4.07;;;26.60;72.00;;;;;;5073916;28;20563;-71
2022/06/19 06:53:06;;;;;;;10.27;4.10;;;26.60;74.70;;;;;;5074045;28;20082;-71
2022/06/19 06:55:31;;;;;;;8.60;4.32;;;26.90;69.60;;;;;;5073040;28;20040;-71
2022/06/19 06:57:57;;;;;;;9.55;3.97;;;27.10;69.30;;;;;;5073582;28;20024;-72
2022/06/19 07:00:24;;;;;;;7.95;4.60;;;27.20;70.30;;;;;;5073956;28;20104;-70
2022/06/19 07:02:50;;;;;;;6.72;3.83;;;27.20;71.10;;;;;;5073716;28;20055;-72
2022/06/19 07:05:17;;;;;;;6.80;3.75;;;27.30;70.10;;;;;;5073137;28;20086;-71
2022/06/19 07:07:43;;;;;;;8.13;4.18;;;27.70;70.60;;;;;;5073081;28;20020;-71
2022/06/19 07:10:11;;;;;;;10.00;4.43;;;27.60;71.00;;;;;;5072934;28;20024;-71
2022/06/19 07:12:37;;;;;;;5.68;3.70;;;27.80;68.10;;;;;;5072825;28;20025;-71
2022/06/19 07:15:03;;;;;;;6.45;3.95;;;27.60;70.40;;;;;;5072067;28;20035;-64
2022/06/19 07:17:29;;;;;;;4.70;3.72;;;28.00;69.50;;;;;;5072538;28;20634;-68
2022/06/19 07:19:55;;;;;;;11.10;3.88;;;28.20;65.30;;;;;;5072730;28;20052;-71
2022/06/19 07:22:20;;;;;;;9.50;4.13;;;28.40;66.20;;;;;;5066050;28;20033;-69
2022/06/19 07:24:46;;;;;;;8.13;4.10;;;28.60;67.30;;;;;;5071830;28;20028;-68
2022/06/19 07:27:13;;;;;;;10.95;3.65;;;28.80;67.90;;;;;;5074495;28;20485;-70
2022/06/19 07:29:43;;;;;;;7.63;4.30;;;28.50;68.00;;;;;;5073299;28;20024;-72
2022/06/19 07:32:10;;;;;;;8.32;3.70;;;28.70;67.00;;;;;;5069528;28;20102;-73
2022/06/19 07:34:38;;;;;;;7.35;4.00;;;28.40;66.00;;;;;;5064757;28;20033;-72
2022/06/19 07:37:04;;;;;;;5.95;3.58;;;28.30;66.40;;;;;;5073526;28;20322;-69
2022/06/19 07:39:33;;;;;;;9.38;4.15;;;28.50;68.00;;;;;;5064766;28;20111;-72
2022/06/19 07:42:00;;;;;;;7.32;4.50;;;28.70;71.10;;;;;;5073489;28;20024;-72
2022/06/19 07:44:26;;;;;;;10.50;3.95;;;27.70;66.10;;;;;;5072721;28;20012;-70
2022/06/19 07:52:21;;;;;;;10.00;4.38;;;28.00;66.20;;;;;;5069661;28;20040;-67
2022/06/19 07:54:47;;;;;;;8.38;3.70;;;27.90;65.00;;;;;;5061585;28;20060;-67
2022/06/19 07:57:13;;;;;;;9.35;4.00;;;28.30;64.30;;;;;;5080157;28;20021;-72
2022/06/19 07:59:39;;;;;;;10.13;3.97;;;27.70;61.70;;;;;;5065976;28;20083;-65
2022/06/19 08:02:06;;;;;;;7.60;2.88;;;28.20;60.80;;;;;;5067124;28;20033;-70
2022/06/19 08:04:31;;;;;;;6.75;3.17;;;28.10;58.60;;;;;;5072167;28;20506;-66
2022/06/19 08:06:57;;;;;;;7.25;2.65;;;28.20;59.10;;;;;;5072736;28;20147;-71
2022/06/19 08:09:23;;;;;;;5.30;2.00;;;27.40;58.80;;;;;;5073328;28;20032;-70
2022/06/19 08:11:50;;;;;;;4.97;2.60;;;27.60;58.10;;;;;;5063996;28;20032;-63
2022/06/19 08:14:15;;;;;;;6.88;2.50;;;27.60;59.40;;;;;;5067076;28;20033;-71
2022/06/19 08:16:41;;;;;;;3.20;2.35;;;27.50;59.90;;;;;;5075638;28;20465;-70
2022/06/19 08:19:07;;;;;;;4.50;2.50;;;26.90;58.60;;;;;;5078448;28;20082;-68
2022/06/19 08:21:33;;;;;;;7.25;2.88;;;27.90;60.80;;;;;;5072465;28;20056;-64
2022/06/19 08:23:59;;;;;;;5.78;3.30;;;27.90;61.30;;;;;;5070984;28;20112;-70
2022/06/19 08:26:25;;;;;;;6.70;3.15;;;28.10;60.80;;;;;;5073998;28;20107;-71
2022/06/19 08:29:02;;;;;;;4.25;2.75;;;28.30;60.00;;;;;;5079252;28;20074;-72
2022/06/19 08:31:29;;;;;;;4.43;2.67;;;28.70;61.00;;;;;;5071044;28;20495;-71
2022/06/19 08:33:56;;;;;;;7.72;3.67;;;28.40;58.70;;;;;;5070990;28;20104;-70
2022/06/19 08:36:24;;;;;;;14.82;6.82;;;28.50;59.90;;;;;;5071801;28;20040;-70
2022/06/19 08:38:55;;;;;;;7.50;3.92;;;28.80;61.70;;;;;;5071800;28;20094;-65
2022/06/19 08:41:54;;;;;;;13.45;3.55;;;28.70;60.90;;;;;;5071175;28;20036;-72
2022/06/19 08:44:41;;;;;;;9.88;3.90;;;29.00;60.60;;;;;;5071103;28;20483;-69
2022/06/19 08:47:27;;;;;;;5.80;3.72;;;29.00;61.60;;;;;;5071533;28;20366;-72
2022/06/19 08:49:58;;;;;;;6.70;3.33;;;28.60;62.30;;;;;;5068802;28;20048;-70
2022/06/19 08:53:03;;;;;;;9.40;3.70;;;29.40;63.40;;;;;;5070804;28;20123;-72
2022/06/19 08:55:55;;;;;;;10.88;3.38;;;28.50;61.40;;;;;;5067827;28;20231;-71
2022/06/19 08:58:27;;;;;;;6.75;3.83;;;28.90;62.00;;;;;;5002087;28;20447;-72
2022/06/19 09:01:09;;;;;;;7.95;3.83;;;28.90;60.50;;;;;;5000946;28;20451;-70
2022/06/19 09:06:57;;;;;;;6.88;2.70;;;29.40;62.10;;;;;;4991379;28;20049;-73
2022/06/19 09:10:00;;;;;;;5.88;3.28;;;29.40;60.20;;;;;;4992232;28;20038;-70
2022/06/19 09:13:03;;;;;;;9.93;3.10;;;30.20;61.20;;;;;;5002232;28;20467;-67
2022/06/19 09:15:45;;;;;;;31.98;20.20;;;30.30;61.80;;;;;;4998204;28;20046;-71
2022/06/19 09:18:36;;;;;;;7.00;3.97;;;30.50;62.80;;;;;;5004651;28;20038;-73
2022/06/19 09:21:08;;;;;;;6.30;2.95;;;30.80;61.20;;;;;;5005777;28;20507;-72
2022/06/19 09:23:37;;;;;;;6.95;4.35;;;30.40;58.70;;;;;;4995011;28;20037;-72
2022/06/19 09:26:03;;;;;;;4.57;2.97;;;30.60;60.20;;;;;;5002133;28;20501;-72
2022/06/19 09:28:39;;;;;;;8.93;3.28;;;30.70;61.50;;;;;;5007434;28;20046;-73
2022/06/19 09:31:11;;;;;;;4.88;2.72;;;30.60;59.80;;;;;;5000292;28;20022;-71
2022/06/19 09:33:50;;;;;;;3.83;2.40;;;29.50;58.60;;;;;;4995229;28;20484;-72
2022/06/19 09:36:28;;;;;;;4.32;2.55;;;29.00;59.40;;;;;;5054994;28;20048;-72
2022/06/19 09:39:00;;;;;;;6.50;2.78;;;28.70;58.90;;;;;;5070200;28;20096;-72
2022/06/19 09:41:37;;;;;;;4.82;2.42;;;29.30;61.60;;;;;;5070434;28;20029;-69
2022/06/19 09:44:14;;;;;;;4.28;2.72;;;29.60;60.20;;;;;;5073319;28;20078;-70
2022/06/19 09:47:04;;;;;;;3.58;2.30;;;29.30;58.80;;;;;;5078888;28;20440;-71
2022/06/19 09:49:39;;;;;;;5.63;2.88;;;29.60;59.40;;;;;;5069025;28;20115;-73
2022/06/19 09:52:17;;;;;;;3.33;2.38;;;29.60;59.20;;;;;;5071542;28;20474;-72
2022/06/19 09:54:48;;;;;;;8.60;3.15;;;29.10;59.20;;;;;;5069994;28;20429;-64
2022/06/19 09:57:28;;;;;;;6.60;2.83;;;29.40;60.10;;;;;;5074992;28;20048;-72
2022/06/19 10:00:06;;;;;;;6.72;3.30;;;29.70;59.70;;;;;;5072165;28;20025;-72
2022/06/19 10:03:11;;;;;;;5.13;2.88;;;29.80;60.10;;;;;;5078897;28;20509;-73
2022/06/19 10:05:45;;;;;;;3.45;2.30;;;30.00;61.90;;;;;;5071365;28;20037;-72
2022/06/19 10:08:33;;;;;;;3.60;2.25;;;29.60;58.70;;;;;;5071055;28;20390;-72
2022/06/19 10:11:14;;;;;;;4.47;2.50;;;29.70;59.30;;;;;;5069788;28;20035;-71
2022/06/19 10:13:45;;;;;;;4.97;2.10;;;30.00;61.80;;;;;;5069006;28;20016;-68
2022/06/19 10:16:20;;;;;;;;;;;29.50;58.00;;;;;;5071063;28;20043;-70
2022/06/19 10:18:51;;;;;;;5.22;2.20;;;29.80;58.20;;;;;;5073462;28;19913;-71
2022/06/19 10:24:41;;;;;;;2.88;1.90;;;29.80;59.40;;;;;;4985506;28;20052;-71
2022/06/19 10:27:42;;;;;;;5.28;2.53;;;30.00;60.60;;;;;;4991999;28;20026;-70
2022/06/19 10:30:15;;;;;;;4.97;2.45;;;29.80;58.40;;;;;;4988540;28;20088;-67
2022/06/19 10:32:59;;;;;;;3.58;2.30;;;29.70;59.30;;;;;;4989162;28;20442;-70
2022/06/19 10:36:12;;;;;;;7.93;2.25;;;29.90;59.60;;;;;;4988695;28;20058;-71
2022/06/19 10:38:50;;;;;;;3.10;2.03;;;30.00;58.00;;;;;;4955139;28;20110;-71
2022/06/19 10:44:28;;;;;;;3.67;2.13;;;30.20;58.50;;;;;;4958120;28;20097;-73
2022/06/19 10:47:31;;;;;;;4.40;2.20;;;29.70;56.50;;;;;;4952503;28;20167;-73
2022/06/19 10:50:16;;;;;;;5.10;2.00;;;30.10;57.40;;;;;;4949725;28;20047;-72
2022/06/19 10:53:13;;;;;;;2.47;1.85;;;30.10;57.30;;;;;;4948985;28;20532;-68
2022/06/19 10:56:25;;;;;;;3.60;1.90;;;29.90;55.60;;;;;;4949840;28;20043;-68
2022/06/19 10:58:51;;;;;;;3.92;1.85;;;30.10;55.80;;;;;;4950552;28;20152;-68
2022/06/19 11:04:10;;;;;;;7.15;2.40;;;29.60;56.50;;;;;;5006510;28;20084;-69
2022/06/19 11:06:45;;;;;;;4.65;2.30;;;29.70;56.80;;;;;;5006669;28;20030;-74
2022/06/19 11:09:20;;;;;;;4.22;2.10;;;30.00;60.30;;;;;;5008340;28;20045;-64
2022/06/19 11:11:47;;;;;;;3.63;2.05;;;30.10;58.80;;;;;;5007016;28;20029;-71
2022/06/19 11:14:36;;;;;;;3.38;2.03;;;29.90;57.60;;;;;;5043566;28;20033;-73
2022/06/19 11:17:07;;;;;;;6.35;2.53;;;30.30;57.70;;;;;;5069939;28;20078;-69
2022/06/19 11:19:38;;;;;;;3.33;1.95;;;30.10;57.60;;;;;;5057085;28;20086;-73
2022/06/19 11:22:07;;;;;;;4.82;1.90;;;30.50;58.40;;;;;;5071439;28;20040;-73
2022/06/19 11:24:36;;;;;;;5.63;2.38;;;30.60;55.30;;;;;;5070306;28;20028;-68
2022/06/19 11:27:02;;;;;;;3.45;2.22;;;30.80;56.40;;;;;;5070602;28;20032;-72
2022/06/19 11:29:31;;;;;;;6.60;2.40;;;31.00;54.40;;;;;;5071200;28;20020;-74
2022/06/19 11:32:09;;;;;;;2.95;2.25;;;31.20;56.30;;;;;;5073792;28;20047;-67
2022/06/19 11:34:44;;;;;;;3.03;2.30;;;30.70;52.50;;;;;;5078522;28;20047;-72
2022/06/19 11:37:23;;;;;;;5.88;2.17;;;30.70;54.00;;;;;;5074909;28;20470;-71
2022/06/19 11:39:52;;;;;;;2.63;1.75;;;30.30;54.40;;;;;;5088606;28;20028;-68
2022/06/19 11:42:26;;;;;;;2.30;2.10;;;30.00;55.20;;;;;;5075160;28;20051;-74
2022/06/19 11:45:14;;;;;;;3.88;1.98;;;30.00;56.20;;;;;;5069642;28;20020;-72
2022/06/19 11:47:45;;;;;;;3.72;2.20;;;30.10;55.10;;;;;;5060414;28;20058;-73
2022/06/19 11:50:35;;;;;;;3.97;1.90;;;29.80;53.80;;;;;;5064209;28;20127;-73
2022/06/19 11:53:09;;;;;;;9.20;2.85;;;30.20;54.60;;;;;;5028879;28;20052;-74
2022/06/19 11:55:46;;;;;;;5.32;1.80;;;30.60;53.80;;;;;;5018163;28;20519;-74
2022/06/19 11:58:11;;;;;;;2.10;1.70;;;30.70;56.10;;;;;;5031177;28;20034;-72
2022/06/19 12:00:37;;;;;;;3.25;1.92;;;30.70;53.20;;;;;;5026404;28;20092;-74
2022/06/19 12:03:14;;;;;;;4.78;2.20;;;31.00;54.90;;;;;;5019886;28;20036;-73
2022/06/19 12:05:55;;;;;;;2.53;1.42;;;31.00;52.30;;;;;;5030718;28;20474;-72
2022/06/19 12:08:37;;;;;;;2.60;1.90;;;31.00;53.40;;;;;;5020014;28;20116;-72
2022/06/19 12:11:06;;;;;;;3.42;2.08;;;31.20;54.70;;;;;;5026863;28;20045;-73
2022/06/19 12:13:39;;;;;;;3.17;1.77;;;31.50;53.00;;;;;;5028103;28;20085;-72
2022/06/19 12:16:21;;;;;;;2.20;2.00;;;31.40;51.40;;;;;;5021468;28;20043;-70
2022/06/19 12:18:48;;;;;;;4.05;2.33;;;31.10;52.80;;;;;;5011567;28;20290;-73
2022/06/19 12:21:20;;;;;;;7.15;2.70;;;31.00;53.30;;;;;;5021589;28;20120;-73
2022/06/19 12:24:07;;;;;;;3.97;2.17;;;31.10;53.70;;;;;;5029791;28;20034;-74
2022/06/19 12:26:44;;;;;;;2.33;1.90;;;30.90;52.70;;;;;;5029045;28;20120;-70
2022/06/19 12:29:32;;;;;;;2.97;1.75;;;30.60;52.40;;;;;;5036221;28;20029;-73
2022/06/19 12:32:05;;;;;;;3.55;2.10;;;30.90;54.70;;;;;;5070429;28;20052;-69
2022/06/19 12:34:41;;;;;;;2.28;1.85;;;31.10;55.10;;;;;;5079403;28;20032;-74
2022/06/19 12:37:27;;;;;;;2.35;2.00;;;31.10;53.40;;;;;;5067238;28;20025;-69
2022/06/19 12:39:54;;;;;;;4.05;2.05;;;30.90;52.30;;;;;;5069028;28;20016;-71
2022/06/19 12:42:28;;;;;;;3.83;1.95;;;30.80;54.00;;;;;;5074184;28;20028;-69
2022/06/19 12:45:13;;;;;;;8.80;1.85;;;30.90;54.00;;;;;;5072424;28;20024;-70
2022/06/19 12:47:45;;;;;;;2.47;2.05;;;30.80;54.00;;;;;;5074687;28;20074;-70
2022/06/19 12:50:32;;;;;;;3.33;1.98;;;30.80;53.60;;;;;;5072647;28;20052;-65
2022/06/19 12:53:16;;;;;;;4.03;2.20;;;30.90;52.80;;;;;;5072620;28;20094;-64
2022/06/19 12:55:51;;;;;;;3.97;2.40;;;30.80;54.30;;;;;;5083106;28;20032;-73
2022/06/19 12:58:26;;;;;;;5.47;2.22;;;31.10;55.50;;;;;;5071846;28;20497;-73
2022/06/19 13:00:57;;;;;;;3.45;2.10;;;31.20;54.50;;;;;;5071631;28;20486;-74
2022/06/19 13:03:41;;;;;;;3.90;2.13;;;31.30;55.80;;;;;;5065595;28;20060;-66
2022/06/19 13:06:16;;;;;;;3.30;2.13;;;31.40;56.10;;;;;;5075758;28;20020;-73
2022/06/19 13:08:57;;;;;;;3.70;1.80;;;31.60;54.80;;;;;;5071705;28;20493;-67
2022/06/19 13:11:46;;;;;;;5.22;2.33;;;31.50;53.80;;;;;;5071782;28;20447;-66
2022/06/19 13:14:31;;;;;;;3.33;2.08;;;31.40;52.50;;;;;;5059185;28;20184;-73
2022/06/19 13:17:21;;;;;;;2.58;1.52;;;31.30;53.30;;;;;;5074059;28;20047;-75
2022/06/19 13:20:03;;;;;;;2.13;1.63;;;31.30;52.90;;;;;;5079551;28;20046;-76
2022/06/19 13:22:38;;;;;;;2.28;1.67;;;31.30;54.40;;;;;;5074512;28;20028;-68
2022/06/19 13:25:32;;;;;;;2.60;1.77;;;31.40;54.80;;;;;;5066279;28;20375;-71